createdAt,value
2022-08-21T00:00:27.264Z,15.18
2022-08-21T00:02:57.991Z,15.38
2022-08-21T00:05:26.370Z,15.25
2022-08-21T00:07:53.093Z,15.18
2022-08-21T00:10:21.002Z,15.14
2022-08-21T00:12:49.424Z,15.29
2022-08-21T00:15:20.407Z,15.16
2022-08-21T00:17:47.439Z,15.19
2022-08-21T00:20:16.634Z,15.14
2022-08-21T00:22:43.491Z,15.26
2022-08-21T00:25:11.793Z,15.21
2022-08-21T00:27:38.584Z,15.30
2022-08-21T00:30:07.765Z,15.31
2022-08-21T00:32:34.788Z,15.16
2022-08-21T00:35:01.636Z,15.23
2022-08-21T00:37:28.445Z,15.23
2022-08-21T00:39:57.794Z,15.20
2022-08-21T00:42:24.540Z,15.15
2022-08-21T00:44:51.974Z,15.23
2022-08-21T00:47:19.807Z,15.21
2022-08-21T00:49:46.738Z,15.21
2022-08-21T00:52:21.908Z,15.21
2022-08-21T00:54:50.390Z,15.23
2022-08-21T00:57:21.979Z,15.23
2022-08-21T00:59:53.705Z,15.25
2022-08-21T01:02:21.390Z,15.18
2022-08-21T01:04:48.943Z,15.22
2022-08-21T01:07:16.617Z,15.24
2022-08-21T01:09:43.600Z,15.28
2022-08-21T01:12:11.912Z,15.22
2022-08-21T01:14:40.113Z,15.14
2022-08-21T01:17:07.867Z,15.33
2022-08-21T01:19:34.842Z,15.32
2022-08-21T01:22:01.595Z,15.39
2022-08-21T01:24:28.332Z,15.27
2022-08-21T01:26:55.242Z,15.47
2022-08-21T01:29:44.208Z,15.41
2022-08-21T01:32:15.275Z,15.41
2022-08-21T01:34:44.496Z,15.24
2022-08-21T01:37:11.990Z,15.36
2022-08-21T01:39:39.543Z,15.14
2022-08-21T01:42:06.691Z,15.26
2022-08-21T01:44:35.335Z,15.22
2022-08-21T01:47:06.244Z,15.37
2022-08-21T01:49:32.980Z,15.31
2022-08-21T01:51:59.646Z,15.25
2022-08-21T01:54:26.902Z,15.27
2022-08-21T01:56:54.650Z,15.27
2022-08-21T01:59:23.956Z,15.37
2022-08-21T02:01:51.092Z,15.37
2022-08-21T02:04:18.110Z,15.26
2022-08-21T02:06:44.964Z,15.48
2022-08-21T02:09:12.975Z,15.42
2022-08-21T02:11:41.398Z,15.49
2022-08-21T02:14:12.698Z,15.39
2022-08-21T02:16:39.945Z,15.31
2022-08-21T02:19:07.124Z,15.45
2022-08-21T02:21:33.986Z,15.48
2022-08-21T02:24:00.730Z,15.33
2022-08-21T02:26:27.487Z,15.45
2022-08-21T02:28:54.170Z,15.45
2022-08-21T02:31:20.887Z,15.36
2022-08-21T02:33:47.715Z,15.38
2022-08-21T02:36:15.251Z,15.37
2022-08-21T02:38:43.987Z,15.45
2022-08-21T02:41:16.425Z,15.41
2022-08-21T02:43:43.783Z,15.35
2022-08-21T02:46:12.934Z,15.33
2022-08-21T02:48:40.579Z,15.42
2022-08-21T02:51:15.768Z,15.37
2022-08-21T02:53:43.257Z,15.30
2022-08-21T02:56:13.191Z,15.38
2022-08-21T02:58:52.378Z,15.31
2022-08-21T03:01:20.678Z,15.15
2022-08-21T03:03:50.889Z,15.20
2022-08-21T03:06:19.718Z,15.29
2022-08-21T03:08:46.583Z,15.23
2022-08-21T03:11:15.319Z,15.29
2022-08-21T03:13:42.478Z,15.19
2022-08-21T03:16:10.009Z,15.22
2022-08-21T03:18:38.210Z,15.21
2022-08-21T03:21:07.890Z,15.23
2022-08-21T03:23:34.657Z,15.22
2022-08-21T03:26:01.993Z,15.14
2022-08-21T03:28:29.293Z,15.11
2022-08-21T03:30:56.336Z,15.19
2022-08-21T03:33:23.684Z,15.18
2022-08-21T03:36:01.579Z,15.17
2022-08-21T03:38:30.543Z,15.20
2022-08-21T03:40:57.341Z,15.21
2022-08-21T03:43:24.044Z,15.17
2022-08-21T03:45:51.035Z,15.25
2022-08-21T03:48:19.988Z,15.24
2022-08-21T03:50:48.208Z,15.14
2022-08-21T03:53:17.428Z,15.22
2022-08-21T03:55:49.611Z,15.18
2022-08-21T03:58:18.655Z,15.16
2022-08-21T04:00:51.883Z,15.11
2022-08-21T04:03:19.117Z,15.05
2022-08-21T04:05:46.847Z,14.93
2022-08-21T04:08:15.626Z,15.03
2022-08-21T04:10:44.142Z,14.96
2022-08-21T04:13:10.900Z,15.16
2022-08-21T04:15:37.665Z,14.98
2022-08-21T04:18:05.685Z,15.21
2022-08-21T04:20:32.499Z,15.18
2022-08-21T04:22:59.319Z,15.38
2022-08-21T04:25:29.652Z,15.35
2022-08-21T04:27:56.718Z,15.32
2022-08-21T04:30:28.447Z,15.20
2022-08-21T04:32:58.173Z,15.08
2022-08-21T04:35:27.099Z,15.20
2022-08-21T04:37:54.158Z,15.16
2022-08-21T04:40:23.352Z,15.19
2022-08-21T04:43:01.663Z,15.41
2022-08-21T04:45:34.773Z,15.34
2022-08-21T04:48:03.601Z,15.42
2022-08-21T04:50:46.011Z,15.22
2022-08-21T04:53:27.483Z,15.33
2022-08-21T04:55:57.140Z,15.16
2022-08-21T04:58:27.283Z,15.19
2022-08-21T05:00:56.704Z,15.11
2022-08-21T05:03:24.188Z,15.14
2022-08-21T05:05:50.944Z,15.24
2022-08-21T05:08:21.691Z,15.17
2022-08-21T05:10:48.902Z,15.18
2022-08-21T05:13:16.422Z,15.04
2022-08-21T05:15:43.420Z,15.19
2022-08-21T05:18:10.412Z,14.79
2022-08-21T05:20:37.359Z,15.23
2022-08-21T05:23:12.442Z,15.06
2022-08-21T05:25:39.613Z,15.10
2022-08-21T05:28:07.323Z,15.21
2022-08-21T05:30:35.707Z,15.29
2022-08-21T05:33:05.522Z,15.44
2022-08-21T05:35:33.355Z,15.46
2022-08-21T05:38:01.069Z,15.54
2022-08-21T05:40:28.416Z,15.74
2022-08-21T05:42:56.804Z,15.96
2022-08-21T05:45:26.942Z,16.05
2022-08-21T05:48:23.591Z,16.15
2022-08-21T05:50:52.698Z,16.35
2022-08-21T05:53:21.668Z,16.29
2022-08-21T05:55:49.206Z,16.66
2022-08-21T05:58:21.203Z,16.39
2022-08-21T06:00:49.245Z,16.20
2022-08-21T06:03:25.164Z,16.25
2022-08-21T06:05:53.834Z,16.44
2022-08-21T06:08:21.118Z,16.37
2022-08-21T06:10:49.327Z,16.15
2022-08-21T06:13:17.475Z,16.07
2022-08-21T06:15:44.346Z,16.31
2022-08-21T06:18:11.208Z,16.39
2022-08-21T06:20:39.198Z,16.28
2022-08-21T06:23:05.922Z,16.46
2022-08-21T06:25:32.855Z,16.27
2022-08-21T06:28:10.983Z,16.45
2022-08-21T06:30:39.815Z,16.78
2022-08-21T06:33:07.964Z,16.73
2022-08-21T06:35:35.338Z,16.89
2022-08-21T06:38:02.407Z,17.05
2022-08-21T06:40:29.689Z,17.08
2022-08-21T06:42:58.767Z,17.15
2022-08-21T06:45:25.744Z,17.06
2022-08-21T06:47:55.137Z,16.96
2022-08-21T06:50:21.867Z,17.33
2022-08-21T06:52:48.619Z,17.16
2022-08-21T06:55:22.425Z,17.67
2022-08-21T06:57:52.651Z,18.05
2022-08-21T07:00:20.303Z,17.85
2022-08-21T07:02:46.956Z,18.22
2022-08-21T07:05:17.917Z,18.07
2022-08-21T07:07:46.511Z,17.78
2022-08-21T07:10:21.690Z,18.24
2022-08-21T07:12:48.806Z,17.83
2022-08-21T07:15:17.762Z,17.82
2022-08-21T07:17:44.431Z,17.93
2022-08-21T07:20:11.250Z,17.94
2022-08-21T07:22:41.723Z,17.39
2022-08-21T07:25:09.255Z,18.01
2022-08-21T07:27:35.987Z,18.14
2022-08-21T07:30:02.725Z,17.87
2022-08-21T07:32:29.600Z,17.90
2022-08-21T07:34:56.276Z,17.91
2022-08-21T07:37:22.990Z,17.76
2022-08-21T07:39:50.099Z,18.13
2022-08-21T07:42:18.069Z,18.25
2022-08-21T07:44:44.874Z,17.98
2022-08-21T07:47:11.611Z,18.37
2022-08-21T07:49:38.722Z,18.57
2022-08-21T07:52:05.422Z,18.60
2022-08-21T07:54:33.955Z,18.52
2022-08-21T07:57:02.059Z,18.59
2022-08-21T07:59:28.886Z,18.85
2022-08-21T08:01:55.734Z,18.56
2022-08-21T08:04:26.366Z,18.51
2022-08-21T08:06:54.015Z,18.23
2022-08-21T08:09:20.805Z,18.55
2022-08-21T08:11:47.490Z,18.44
2022-08-21T08:14:14.142Z,18.64
2022-08-21T08:16:40.818Z,18.54
2022-08-21T08:19:07.862Z,18.19
2022-08-21T08:21:35.182Z,17.86
2022-08-21T08:24:18.523Z,18.22
2022-08-21T08:26:50.575Z,18.13
2022-08-21T08:29:22.340Z,17.89
2022-08-21T08:31:49.080Z,18.03
2022-08-21T08:34:25.267Z,18.37
2022-08-21T08:36:52.878Z,17.76
2022-08-21T08:39:26.529Z,17.38
2022-08-21T08:42:33.886Z,17.58
2022-08-21T08:45:11.684Z,18.10
2022-08-21T08:47:46.500Z,17.95
2022-08-21T08:50:24.825Z,18.08
2022-08-21T08:53:21.876Z,18.15
2022-08-21T08:55:49.584Z,18.50
2022-08-21T08:58:44.927Z,18.28
2022-08-21T09:01:18.309Z,18.22
2022-08-21T09:03:51.137Z,18.24
2022-08-21T09:06:45.703Z,18.11
2022-08-21T09:09:35.091Z,18.15
2022-08-21T09:12:15.285Z,18.38
2022-08-21T09:14:42.051Z,18.14
2022-08-21T09:17:14.924Z,18.04
2022-08-21T09:20:03.236Z,18.19
2022-08-21T09:22:29.879Z,18.13
2022-08-21T09:25:20.839Z,18.21
2022-08-21T09:27:49.932Z,17.83
2022-08-21T09:30:16.708Z,18.20
2022-08-21T09:32:43.519Z,18.20
2022-08-21T09:35:22.860Z,17.52
2022-08-21T09:37:58.416Z,17.93
2022-08-21T09:40:59.210Z,18.12
2022-08-21T09:43:26.357Z,18.18
2022-08-21T09:46:12.885Z,18.21
2022-08-21T09:48:42.528Z,18.66
2022-08-21T09:51:15.658Z,18.39
2022-08-21T09:54:08.611Z,18.51
2022-08-21T09:56:57.245Z,18.40
2022-08-21T09:59:36.527Z,18.39
2022-08-21T10:02:20.703Z,18.55
2022-08-21T10:04:52.785Z,18.38
2022-08-21T10:07:23.124Z,19.15
2022-08-21T10:10:01.194Z,18.25
2022-08-21T10:12:41.569Z,18.61
2022-08-21T10:15:26.252Z,18.59
2022-08-21T10:18:37.880Z,18.89
2022-08-21T10:21:23.179Z,18.84
2022-08-21T10:23:59.564Z,18.63
2022-08-21T10:26:32.443Z,18.78
2022-08-21T10:29:10.165Z,19.05
2022-08-21T10:31:44.496Z,18.51
2022-08-21T10:34:35.587Z,18.36
2022-08-21T10:37:13.515Z,18.33
2022-08-21T10:40:10.041Z,18.56
2022-08-21T10:42:50.188Z,18.28
2022-08-21T10:45:37.603Z,17.06
2022-08-21T10:48:08.918Z,16.94
2022-08-21T10:51:00.521Z,17.02
2022-08-21T10:53:27.127Z,17.23
2022-08-21T10:56:03.503Z,17.23
2022-08-21T10:58:34.824Z,17.24
2022-08-21T11:01:14.136Z,17.48
2022-08-21T11:03:47.819Z,17.58
2022-08-21T11:06:21.111Z,17.63
2022-08-21T11:08:52.200Z,17.81
2022-08-21T11:11:50.120Z,17.75
2022-08-21T11:14:50.039Z,18.03
2022-08-21T11:17:23.258Z,17.73
2022-08-21T11:19:55.865Z,17.50
2022-08-21T11:22:29.654Z,17.96
2022-08-21T11:25:21.061Z,18.07
2022-08-21T11:27:55.294Z,18.25
2022-08-21T11:30:23.823Z,18.14
2022-08-21T11:32:56.737Z,17.87
2022-08-21T11:35:35.293Z,17.96
2022-08-21T11:38:20.366Z,18.10
2022-08-21T11:41:06.536Z,17.48
2022-08-21T11:43:33.194Z,17.42
2022-08-21T11:46:26.439Z,17.27
2022-08-21T11:49:00.053Z,16.91
2022-08-21T11:51:50.638Z,16.96
2022-08-21T11:54:20.156Z,17.21
2022-08-21T11:56:54.193Z,16.81
2022-08-21T11:59:40.893Z,17.06
2022-08-21T12:02:15.764Z,17.36
2022-08-21T12:04:52.754Z,17.23
2022-08-21T12:07:44.165Z,17.82
2022-08-21T12:10:23.108Z,18.11
2022-08-21T12:12:49.867Z,18.33
2022-08-21T12:15:23.419Z,18.05
2022-08-21T12:18:06.774Z,18.65
2022-08-21T12:20:33.505Z,19.24
2022-08-21T12:23:18.275Z,18.89
2022-08-21T12:26:02.459Z,18.93
2022-08-21T12:28:32.007Z,18.39
2022-08-21T12:30:59.555Z,18.64
2022-08-21T12:33:31.460Z,18.22
2022-08-21T12:36:22.345Z,18.97
2022-08-21T12:38:54.956Z,18.99
2022-08-21T12:41:27.622Z,18.59
2022-08-21T12:44:00.853Z,18.87
2022-08-21T12:46:35.522Z,18.65
2022-08-21T12:49:14.953Z,18.89
2022-08-21T12:51:57.508Z,18.91
2022-08-21T12:54:30.521Z,19.11
2022-08-21T12:57:01.984Z,18.51
2022-08-21T12:59:30.038Z,18.75
2022-08-21T13:01:59.230Z,18.47
2022-08-21T13:04:41.017Z,18.65
2022-08-21T13:07:13.209Z,17.79
2022-08-21T13:09:51.919Z,18.07
2022-08-21T13:12:20.752Z,17.17
2022-08-21T13:14:48.420Z,17.24
2022-08-21T13:17:23.445Z,17.39
2022-08-21T13:20:02.249Z,17.27
2022-08-21T13:22:34.122Z,17.22
2022-08-21T13:25:07.197Z,17.00
2022-08-21T13:27:35.173Z,16.96
2022-08-21T13:30:21.199Z,16.87
2022-08-21T13:32:56.566Z,17.03
2022-08-21T13:35:31.541Z,17.06
2022-08-21T13:38:00.161Z,17.17
2022-08-21T13:40:52.106Z,17.34
2022-08-21T13:43:22.033Z,17.23
2022-08-21T13:45:52.142Z,17.04
2022-08-21T13:48:20.624Z,17.34
2022-08-21T13:50:47.870Z,17.13
2022-08-21T13:53:28.418Z,17.44
2022-08-21T13:56:00.538Z,17.41
2022-08-21T13:58:34.019Z,16.93
2022-08-21T14:01:02.771Z,17.22
2022-08-21T14:03:38.873Z,17.22
2022-08-21T14:06:17.930Z,17.36
2022-08-21T14:08:51.693Z,17.42
2022-08-21T14:11:19.227Z,17.29
2022-08-21T14:13:50.758Z,17.26
2022-08-21T14:16:26.498Z,17.43
2022-08-21T14:18:54.890Z,17.51
2022-08-21T14:21:44.649Z,17.49
2022-08-21T14:24:32.180Z,17.45
2022-08-21T14:27:06.830Z,17.51
2022-08-21T14:29:37.660Z,17.33
2022-08-21T14:32:21.937Z,17.81
2022-08-21T14:34:51.583Z,17.95
2022-08-21T14:37:18.906Z,18.08
2022-08-21T14:39:46.637Z,17.81
2022-08-21T14:42:13.999Z,17.96
2022-08-21T14:44:40.788Z,18.15
2022-08-21T14:47:08.901Z,17.66
2022-08-21T14:49:35.790Z,18.03
2022-08-21T14:52:02.876Z,18.49
2022-08-21T14:54:32.434Z,18.56
2022-08-21T14:57:08.643Z,18.05
2022-08-21T14:59:36.967Z,18.39
2022-08-21T15:02:05.361Z,18.21
2022-08-21T15:04:33.933Z,18.43
2022-08-21T15:07:00.971Z,18.32
2022-08-21T15:09:27.717Z,18.20
2022-08-21T15:11:57.950Z,18.09
2022-08-21T15:14:30.515Z,18.51
2022-08-21T15:16:57.701Z,18.35
2022-08-21T15:19:24.593Z,18.24
2022-08-21T15:21:51.654Z,18.35
2022-08-21T15:24:18.380Z,18.18
2022-08-21T15:26:46.046Z,18.09
2022-08-21T15:29:13.404Z,18.23
2022-08-21T15:31:58.688Z,17.94
2022-08-21T15:34:28.274Z,18.29
2022-08-21T15:36:56.280Z,18.15
2022-08-21T15:39:30.162Z,17.92
2022-08-21T15:41:58.866Z,17.88
2022-08-21T15:44:28.622Z,17.73
2022-08-21T15:46:55.984Z,17.53
2022-08-21T15:49:23.851Z,17.72
2022-08-21T15:51:50.598Z,17.65
2022-08-21T15:54:17.412Z,17.68
2022-08-21T15:56:49.610Z,17.52
2022-08-21T15:59:22.903Z,17.60
2022-08-21T16:01:50.897Z,17.67
2022-08-21T16:04:25.027Z,17.64
2022-08-21T16:06:54.242Z,17.51
2022-08-21T16:09:23.119Z,17.76
2022-08-21T16:11:50.117Z,17.60
2022-08-21T16:14:17.886Z,17.33
2022-08-21T16:16:44.804Z,17.15
2022-08-21T16:19:13.627Z,17.29
2022-08-21T16:21:41.075Z,17.60
2022-08-21T16:24:07.997Z,17.45
2022-08-21T16:26:37.252Z,17.36
2022-08-21T16:29:05.186Z,17.33
2022-08-21T16:31:33.280Z,17.42
2022-08-21T16:34:02.860Z,17.25
2022-08-21T16:36:30.184Z,16.85
2022-08-21T16:38:58.326Z,16.95
2022-08-21T16:41:28.907Z,16.96
2022-08-21T16:43:55.762Z,16.87
2022-08-21T16:46:23.416Z,16.96
2022-08-21T16:48:50.348Z,16.89
2022-08-21T16:51:17.609Z,16.90
2022-08-21T16:53:44.842Z,16.85
2022-08-21T16:56:13.681Z,16.85
2022-08-21T16:58:42.932Z,16.62
2022-08-21T17:01:13.022Z,16.56
2022-08-21T17:03:43.175Z,16.63
2022-08-21T17:06:10.738Z,16.70
2022-08-21T17:08:38.124Z,16.75
2022-08-21T17:11:36.606Z,16.60
2022-08-21T17:14:10.866Z,16.77
2022-08-21T17:16:40.911Z,16.65
2022-08-21T17:19:08.365Z,16.95
2022-08-21T17:21:35.953Z,16.71
2022-08-21T17:24:02.850Z,16.72
2022-08-21T17:26:29.958Z,16.36
2022-08-21T17:28:56.963Z,16.56
2022-08-21T17:31:23.976Z,16.47
2022-08-21T17:33:53.901Z,16.61
2022-08-21T17:36:28.668Z,16.40
2022-08-21T17:38:57.151Z,16.43
2022-08-21T17:41:24.618Z,16.40
2022-08-21T17:43:51.704Z,16.42
2022-08-21T17:46:28.785Z,16.39
2022-08-21T17:48:57.814Z,16.48
2022-08-21T17:51:24.638Z,16.61
2022-08-21T17:53:51.359Z,16.55
2022-08-21T17:56:19.264Z,16.68
2022-08-21T17:58:50.710Z,16.47
2022-08-21T18:01:18.236Z,16.37
2022-08-21T18:03:47.132Z,16.46
2022-08-21T18:06:17.762Z,16.53
2022-08-21T18:08:45.825Z,16.37
2022-08-21T18:11:17.963Z,16.34
2022-08-21T18:13:52.793Z,16.44
2022-08-21T18:16:20.120Z,16.35
2022-08-21T18:18:48.994Z,16.40
2022-08-21T18:21:15.952Z,16.32
2022-08-21T18:23:43.778Z,16.53
2022-08-21T18:26:14.486Z,16.52
2022-08-21T18:28:42.296Z,16.70
2022-08-21T18:31:11.456Z,16.83
2022-08-21T18:33:40.027Z,16.57
2022-08-21T18:36:21.387Z,16.57
2022-08-21T18:38:48.204Z,16.65
2022-08-21T18:41:15.018Z,16.52
2022-08-21T18:43:42.081Z,16.37
2022-08-21T18:46:09.104Z,16.66
2022-08-21T18:48:36.019Z,16.69
2022-08-21T18:51:02.894Z,16.57
2022-08-21T18:53:30.419Z,16.58
2022-08-21T18:58:46.139Z,16.88
2022-08-21T19:01:12.961Z,16.62
2022-08-21T19:03:40.353Z,16.62
2022-08-21T19:06:09.655Z,16.87
2022-08-21T19:08:38.778Z,16.74
2022-08-21T19:11:06.596Z,16.61
2022-08-21T19:13:34.440Z,16.82
2022-08-21T19:16:05.217Z,16.65
2022-08-21T19:18:37.462Z,16.73
2022-08-21T19:21:06.104Z,16.68
2022-08-21T19:23:35.487Z,16.68
2022-08-21T19:26:07.649Z,16.58
2022-08-21T19:28:41.227Z,16.69
2022-08-21T19:31:23.883Z,16.59
2022-08-21T19:34:01.771Z,16.54
2022-08-21T19:36:30.375Z,16.45
2022-08-21T19:38:57.490Z,16.39
2022-08-21T19:41:28.550Z,16.42
2022-08-21T19:43:58.387Z,16.29
2022-08-21T19:46:37.036Z,16.29
2022-08-21T19:49:06.963Z,16.35
2022-08-21T19:51:35.421Z,16.34
2022-08-21T19:54:02.655Z,16.31
2022-08-21T19:56:34.131Z,16.19
2022-08-21T20:01:51.277Z,16.12
2022-08-21T20:04:19.570Z,16.30
2022-08-21T20:06:47.180Z,16.15
2022-08-21T20:09:16.252Z,16.13
2022-08-21T20:11:46.551Z,15.91
2022-08-21T20:14:16.563Z,15.98
2022-08-21T20:16:44.165Z,16.25
2022-08-21T20:19:11.397Z,15.93
2022-08-21T20:21:43.709Z,15.81
2022-08-21T20:24:14.566Z,15.69
2022-08-21T20:26:49.307Z,15.26
2022-08-21T20:29:24.579Z,15.06
2022-08-21T20:31:58.361Z,15.21
2022-08-21T20:34:25.788Z,15.22
2022-08-21T20:36:53.932Z,15.07
2022-08-21T20:39:23.914Z,14.92
2022-08-21T20:41:53.623Z,14.70
2022-08-21T20:44:21.987Z,14.39
2022-08-21T20:46:48.754Z,14.69
2022-08-21T20:49:21.727Z,14.29
2022-08-21T20:51:53.083Z,13.89
2022-08-21T20:54:28.739Z,14.02
2022-08-21T20:57:18.605Z,13.86
2022-08-21T20:59:54.200Z,13.78
2022-08-21T21:02:44.269Z,13.68
2022-08-21T21:05:31.709Z,13.48
2022-08-21T21:08:23.945Z,13.48
2022-08-21T21:11:05.415Z,13.62
2022-08-21T21:13:53.135Z,13.29
2022-08-21T21:16:23.432Z,13.20
2022-08-21T21:19:01.740Z,13.04
2022-08-21T21:22:04.729Z,13.33
2022-08-21T21:24:48.227Z,13.02
2022-08-21T21:27:34.903Z,13.11
2022-08-21T21:30:12.081Z,13.11
2022-08-21T21:32:41.439Z,13.08
2022-08-21T21:35:12.397Z,13.11
2022-08-21T21:37:53.201Z,13.14
2022-08-21T21:40:51.981Z,13.05
2022-08-21T21:43:47.659Z,13.06
2022-08-21T21:46:49.459Z,13.01
2022-08-21T21:49:35.542Z,12.90
2022-08-21T21:52:41.180Z,12.99
2022-08-21T21:55:33.704Z,13.22
2022-08-21T21:58:49.282Z,12.82
2022-08-21T22:01:34.595Z,12.98
2022-08-21T22:04:07.466Z,12.95
2022-08-21T22:06:52.886Z,12.79
2022-08-21T22:09:34.726Z,12.92
2022-08-21T22:12:04.278Z,12.92
2022-08-21T22:14:37.274Z,13.02
2022-08-21T22:17:35.988Z,13.17
2022-08-21T22:20:12.288Z,12.93
2022-08-21T22:22:42.349Z,12.82
2022-08-21T22:25:27.294Z,13.08
2022-08-21T22:28:02.832Z,13.06
2022-08-21T22:30:45.367Z,13.15
2022-08-21T22:33:20.168Z,13.08
2022-08-21T22:35:51.721Z,12.94
2022-08-21T22:38:27.525Z,13.13
2022-08-21T22:41:14.983Z,12.98
2022-08-21T22:43:57.091Z,12.95
2022-08-21T22:46:34.128Z,12.90
2022-08-21T22:49:10.143Z,13.17
2022-08-21T22:51:43.811Z,12.92
2022-08-21T22:54:21.830Z,13.19
2022-08-21T22:57:02.752Z,12.90
2022-08-21T22:59:36.227Z,13.10
2022-08-21T23:02:21.220Z,13.03
2022-08-21T23:04:50.486Z,13.01
2022-08-21T23:07:42.852Z,13.26
2022-08-21T23:10:29.831Z,13.17
2022-08-21T23:13:22.629Z,13.02
2022-08-21T23:16:15.822Z,13.08
2022-08-21T23:19:26.302Z,13.16
2022-08-21T23:22:21.037Z,13.00
2022-08-21T23:24:53.510Z,13.13
2022-08-21T23:27:40.406Z,13.10
2022-08-21T23:30:12.900Z,13.11
2022-08-21T23:33:07.311Z,12.95
2022-08-21T23:36:11.214Z,12.81
2022-08-21T23:39:05.342Z,13.14
2022-08-21T23:44:56.251Z,12.70
2022-08-21T23:48:04.020Z,12.91
2022-08-21T23:50:42.273Z,12.72
2022-08-21T23:53:23.230Z,12.61
2022-08-21T23:56:28.655Z,12.56
2022-08-21T23:59:28.223Z,12.34
